createdAt,value
2017-10-31T00:02:01.988Z,76.24
2017-10-31T00:04:30.260Z,76.14
2017-10-31T00:06:58.507Z,75.84
2017-10-31T00:09:26.782Z,75.63
2017-10-31T00:11:55.808Z,75.81
2017-10-31T00:14:24.066Z,76.03
2017-10-31T00:16:52.353Z,75.90
2017-10-31T00:19:20.682Z,76.31
2017-10-31T00:21:49.724Z,76.62
2017-10-31T00:24:18.130Z,76.53
2017-10-31T00:26:46.433Z,76.81
2017-10-31T00:29:14.728Z,76.75
2017-10-31T00:31:43.762Z,77.13
2017-10-31T00:34:12.040Z,76.89
2017-10-31T00:36:40.332Z,76.98
2017-10-31T00:39:08.636Z,77.16
2017-10-31T00:41:37.696Z,77.19
2017-10-31T00:44:05.984Z,77.24
2017-10-31T00:46:34.258Z,77.69
2017-10-31T00:49:02.568Z,77.87
2017-10-31T00:51:31.602Z,78.09
2017-10-31T00:53:59.877Z,77.83
2017-10-31T00:56:28.375Z,78.16
2017-10-31T00:58:56.703Z,78.16
2017-10-31T01:01:25.006Z,78.46
2017-10-31T01:03:54.025Z,78.19
2017-10-31T01:06:22.289Z,78.45
2017-10-31T01:08:57.437Z,78.55
2017-10-31T01:11:25.676Z,78.81
2017-10-31T01:13:53.935Z,78.75
2017-10-31T01:16:22.947Z,78.94
2017-10-31T01:18:51.199Z,79.13
2017-10-31T01:21:20.198Z,78.98
2017-10-31T01:23:49.214Z,78.36
2017-10-31T01:26:17.464Z,78.42
2017-10-31T01:28:46.570Z,78.56
2017-10-31T01:31:14.863Z,79.29
2017-10-31T01:33:44.090Z,79.09
2017-10-31T01:36:12.539Z,79.76
2017-10-31T01:38:40.815Z,79.69
2017-10-31T01:41:09.368Z,80.09
2017-10-31T01:43:38.519Z,79.94
2017-10-31T01:46:06.868Z,79.68
2017-10-31T01:48:35.137Z,79.58
2017-10-31T01:51:03.383Z,79.64
2017-10-31T01:53:32.415Z,79.63
2017-10-31T01:56:00.657Z,79.76
2017-10-31T01:58:29.670Z,79.65
2017-10-31T02:00:57.931Z,79.92
2017-10-31T02:03:26.954Z,80.27
2017-10-31T02:05:55.211Z,79.74
2017-10-31T02:08:23.457Z,79.77
2017-10-31T02:10:51.715Z,79.75
2017-10-31T02:13:19.950Z,79.80
2017-10-31T02:15:48.204Z,80.10
2017-10-31T02:18:17.220Z,80.17
2017-10-31T02:20:45.481Z,80.35
2017-10-31T02:23:13.735Z,80.55
2017-10-31T02:25:42.746Z,80.49
2017-10-31T02:28:10.996Z,80.87
2017-10-31T02:30:39.261Z,80.95
2017-10-31T02:33:08.300Z,81.04
2017-10-31T02:35:36.583Z,80.95
2017-10-31T02:38:04.859Z,80.87
2017-10-31T02:40:33.144Z,81.21
2017-10-31T02:43:01.424Z,81.19
2017-10-31T02:45:29.714Z,81.10
2017-10-31T02:47:57.992Z,81.19
2017-10-31T02:50:26.284Z,81.18
2017-10-31T02:52:54.558Z,81.29
2017-10-31T02:55:22.840Z,81.52
2017-10-31T02:57:51.108Z,81.41
2017-10-31T03:00:19.404Z,81.59
2017-10-31T03:02:48.463Z,81.69
2017-10-31T03:05:16.753Z,81.80
2017-10-31T03:07:45.015Z,81.82
2017-10-31T03:10:13.329Z,82.01
2017-10-31T03:12:42.356Z,82.09
2017-10-31T03:15:10.640Z,82.14
2017-10-31T03:17:38.925Z,82.25
2017-10-31T03:20:07.205Z,82.39
2017-10-31T03:22:35.492Z,82.27
2017-10-31T03:25:03.781Z,82.44
2017-10-31T03:27:32.075Z,82.52
2017-10-31T03:30:01.149Z,82.69
2017-10-31T03:32:29.422Z,82.89
2017-10-31T03:34:57.690Z,82.84
2017-10-31T03:37:25.956Z,82.80
2017-10-31T03:39:54.250Z,82.83
2017-10-31T03:42:22.534Z,82.84
2017-10-31T03:44:50.810Z,82.95
2017-10-31T03:47:19.098Z,82.66
2017-10-31T03:49:47.391Z,82.64
2017-10-31T03:52:16.434Z,82.89
2017-10-31T03:54:44.712Z,82.91
2017-10-31T03:57:12.980Z,82.54
2017-10-31T03:59:41.273Z,82.59
2017-10-31T04:02:09.565Z,82.60
2017-10-31T04:04:37.857Z,82.92
2017-10-31T04:07:06.910Z,82.88
2017-10-31T04:09:35.187Z,82.87
2017-10-31T04:12:03.459Z,82.89
2017-10-31T04:14:31.732Z,82.70
2017-10-31T04:16:59.996Z,82.59
2017-10-31T04:19:28.278Z,82.53
2017-10-31T04:21:56.556Z,82.73
2017-10-31T04:24:25.618Z,83.09
2017-10-31T04:26:53.900Z,82.80
2017-10-31T04:29:22.188Z,82.99
2017-10-31T04:31:50.449Z,83.18
2017-10-31T04:34:18.735Z,83.09
2017-10-31T04:36:47.002Z,83.51
2017-10-31T04:39:15.300Z,83.85
2017-10-31T04:41:43.591Z,83.81
2017-10-31T04:44:11.877Z,84.06
2017-10-31T04:46:40.171Z,84.31
2017-10-31T04:49:09.231Z,84.29
2017-10-31T04:51:37.523Z,84.45
2017-10-31T04:54:05.809Z,84.75
2017-10-31T04:56:34.115Z,84.50
2017-10-31T04:59:02.391Z,84.62
2017-10-31T05:01:30.659Z,84.46
2017-10-31T05:03:59.688Z,84.67
2017-10-31T05:06:27.982Z,85.10
2017-10-31T05:08:56.256Z,84.97
2017-10-31T05:11:24.527Z,85.16
2017-10-31T05:13:52.770Z,85.29
2017-10-31T05:16:21.028Z,85.22
2017-10-31T05:18:50.045Z,85.48
2017-10-31T05:21:18.314Z,85.43
2017-10-31T05:23:46.584Z,85.83
2017-10-31T05:26:15.608Z,85.61
2017-10-31T05:28:43.855Z,85.96
2017-10-31T05:31:12.115Z,85.91
2017-10-31T05:33:41.128Z,86.25
2017-10-31T05:36:09.392Z,86.49
2017-10-31T05:38:38.409Z,86.38
2017-10-31T05:41:06.675Z,86.21
2017-10-31T05:43:34.923Z,86.33
2017-10-31T05:46:03.952Z,86.15
2017-10-31T05:48:32.202Z,86.01
2017-10-31T05:51:01.233Z,86.00
2017-10-31T05:53:29.488Z,85.96
2017-10-31T05:55:57.747Z,86.02
2017-10-31T05:58:26.763Z,86.17
2017-10-31T06:00:55.017Z,86.50
2017-10-31T06:03:24.044Z,86.82
2017-10-31T06:05:52.294Z,87.08
2017-10-31T06:08:20.541Z,86.86
2017-10-31T06:10:48.799Z,86.89
2017-10-31T06:13:17.051Z,86.80
2017-10-31T06:15:45.315Z,86.75
2017-10-31T06:18:13.562Z,86.92
2017-10-31T06:20:42.589Z,86.60
2017-10-31T06:23:16.462Z,86.60
2017-10-31T06:25:51.065Z,85.62
2017-10-31T06:28:24.879Z,85.37
2017-10-31T06:30:58.754Z,84.65
2017-10-31T06:33:27.008Z,84.71
2017-10-31T06:35:55.276Z,83.97
2017-10-31T06:38:23.519Z,83.43
2017-10-31T06:40:52.542Z,83.60
2017-10-31T06:43:20.783Z,82.84
2017-10-31T06:45:49.803Z,82.13
2017-10-31T06:48:18.042Z,82.41
2017-10-31T06:50:46.298Z,82.46
2017-10-31T06:53:14.549Z,82.40
2017-10-31T06:55:42.823Z,82.32
2017-10-31T06:58:11.067Z,82.09
2017-10-31T07:00:40.078Z,81.89
2017-10-31T07:03:08.330Z,82.25
2017-10-31T07:05:37.345Z,82.28
2017-10-31T07:08:05.592Z,81.91
2017-10-31T07:10:33.837Z,82.61
2017-10-31T07:13:02.082Z,82.09
2017-10-31T07:15:30.340Z,82.33
2017-10-31T07:17:58.583Z,82.99
2017-10-31T07:20:26.846Z,83.39
2017-10-31T07:22:55.079Z,83.17
2017-10-31T07:25:23.338Z,83.78
2017-10-31T07:27:52.353Z,82.36
2017-10-31T07:30:20.613Z,82.61
2017-10-31T07:32:48.859Z,81.32
2017-10-31T07:35:17.879Z,81.52
2017-10-31T07:37:46.134Z,81.86
2017-10-31T07:40:15.174Z,83.48
2017-10-31T07:42:43.427Z,81.98
2017-10-31T07:45:11.679Z,81.83
2017-10-31T07:47:40.710Z,81.37
2017-10-31T07:50:08.954Z,80.75
2017-10-31T07:52:37.975Z,80.24
2017-10-31T07:55:06.216Z,79.66
2017-10-31T07:57:35.237Z,79.46
2017-10-31T08:00:03.483Z,78.47
2017-10-31T08:02:32.497Z,80.04
2017-10-31T08:05:00.737Z,80.56
2017-10-31T08:07:28.991Z,79.89
2017-10-31T08:09:57.239Z,80.15
2017-10-31T08:12:25.496Z,79.76
2017-10-31T08:14:54.509Z,80.75
2017-10-31T08:17:22.762Z,80.99
2017-10-31T08:19:51.768Z,80.63
2017-10-31T08:22:20.021Z,80.46
2017-10-31T08:24:49.044Z,80.23
2017-10-31T08:27:17.304Z,80.20
2017-10-31T08:29:45.550Z,79.46
2017-10-31T08:32:13.803Z,79.53
2017-10-31T08:34:42.066Z,78.75
2017-10-31T08:37:10.320Z,78.24
2017-10-31T08:39:38.562Z,77.16
2017-10-31T08:42:07.578Z,77.74
2017-10-31T08:44:35.819Z,77.35
2017-10-31T08:47:04.066Z,77.27
2017-10-31T08:49:32.315Z,76.84
2017-10-31T08:52:00.563Z,76.25
2017-10-31T08:54:29.580Z,75.16
2017-10-31T08:56:57.829Z,75.41
2017-10-31T08:59:26.839Z,75.15
2017-10-31T09:01:55.098Z,76.49
2017-10-31T09:04:24.094Z,76.14
2017-10-31T09:06:53.120Z,75.43
2017-10-31T09:09:21.364Z,75.27
2017-10-31T09:11:50.372Z,74.53
2017-10-31T09:14:18.621Z,75.09
2017-10-31T09:16:47.646Z,73.77
2017-10-31T09:19:15.887Z,75.06
2017-10-31T09:21:44.898Z,73.45
2017-10-31T09:24:13.143Z,72.42
2017-10-31T09:26:41.398Z,72.64
2017-10-31T09:29:09.641Z,71.99
2017-10-31T09:31:37.901Z,72.51
2017-10-31T09:34:06.142Z,72.82
2017-10-31T09:36:34.397Z,71.97
2017-10-31T09:39:02.646Z,71.00
2017-10-31T09:41:30.922Z,70.25
2017-10-31T09:43:59.155Z,70.56
2017-10-31T09:46:28.166Z,69.78
2017-10-31T09:48:56.407Z,68.85
2017-10-31T09:51:24.663Z,69.27
2017-10-31T09:53:52.906Z,67.45
2017-10-31T09:56:21.182Z,66.44
2017-10-31T09:58:49.422Z,68.56
2017-10-31T10:01:18.435Z,69.76
2017-10-31T10:03:47.449Z,66.92
2017-10-31T10:06:15.698Z,69.09
2017-10-31T10:08:44.716Z,68.54
2017-10-31T10:11:12.970Z,66.64
2017-10-31T10:13:41.220Z,65.62
2017-10-31T10:16:09.463Z,64.93
2017-10-31T10:18:37.721Z,66.52
2017-10-31T10:21:05.969Z,65.09
2017-10-31T10:23:34.976Z,65.27
2017-10-31T10:26:03.236Z,67.10
2017-10-31T10:28:32.255Z,66.56
2017-10-31T10:31:00.508Z,65.43
2017-10-31T10:33:29.520Z,65.36
2017-10-31T10:35:57.767Z,64.88
2017-10-31T10:38:26.813Z,63.88
2017-10-31T10:40:55.052Z,63.57
2017-10-31T10:43:24.058Z,64.40
2017-10-31T10:45:52.297Z,64.83
2017-10-31T10:48:21.310Z,64.54
2017-10-31T10:50:49.560Z,64.59
2017-10-31T10:53:17.801Z,63.98
2017-10-31T10:55:46.056Z,62.48
2017-10-31T10:58:14.352Z,63.83
2017-10-31T11:00:43.522Z,62.70
2017-10-31T11:03:11.820Z,65.11
2017-10-31T11:05:40.101Z,65.32
2017-10-31T11:08:08.368Z,64.25
2017-10-31T11:10:36.629Z,61.77
2017-10-31T11:13:04.880Z,60.93
2017-10-31T11:15:33.898Z,55.28
2017-10-31T11:18:02.152Z,51.71
2017-10-31T11:20:31.173Z,50.79
2017-10-31T11:23:05.492Z,47.36
2017-10-31T11:25:33.743Z,54.04
2017-10-31T11:28:02.843Z,48.88
2017-10-31T11:30:32.077Z,48.35
2017-10-31T11:33:00.528Z,50.04
2017-10-31T11:35:28.799Z,49.18
2017-10-31T11:37:57.815Z,48.49
2017-10-31T11:40:26.050Z,51.45
2017-10-31T11:42:55.061Z,56.08
2017-10-31T11:45:23.297Z,55.69
2017-10-31T11:47:51.550Z,52.84
2017-10-31T11:50:19.803Z,52.72
2017-10-31T11:52:48.052Z,51.09
2017-10-31T11:55:17.065Z,51.54
2017-10-31T11:57:45.315Z,52.87
2017-10-31T12:00:14.314Z,53.22
2017-10-31T12:02:42.570Z,53.57
2017-10-31T12:05:10.797Z,53.77
2017-10-31T12:07:39.042Z,55.99
2017-10-31T12:10:07.292Z,54.37
2017-10-31T12:12:35.573Z,54.15
2017-10-31T12:15:04.592Z,54.87
2017-10-31T12:17:32.875Z,53.21
2017-10-31T12:20:01.103Z,54.27
2017-10-31T12:22:29.357Z,54.02
2017-10-31T12:24:58.363Z,54.10
2017-10-31T12:27:26.607Z,54.17
2017-10-31T12:29:54.857Z,53.79
2017-10-31T12:32:23.113Z,54.52
2017-10-31T12:34:52.110Z,54.74
2017-10-31T12:37:21.122Z,53.88
2017-10-31T12:39:49.375Z,49.61
2017-10-31T12:42:18.395Z,47.04
2017-10-31T12:44:46.639Z,44.82
2017-10-31T12:47:14.890Z,50.64
2017-10-31T12:49:43.134Z,49.68
2017-10-31T12:52:11.392Z,50.03
2017-10-31T12:54:39.639Z,51.17
2017-10-31T12:57:07.943Z,51.22
2017-10-31T12:59:36.196Z,52.32
2017-10-31T13:02:05.951Z,52.82
2017-10-31T13:04:34.193Z,53.43
2017-10-31T13:07:03.207Z,54.12
2017-10-31T13:09:31.475Z,54.99
2017-10-31T13:11:59.749Z,55.50
2017-10-31T13:14:28.011Z,56.40
2017-10-31T13:16:56.296Z,56.17
2017-10-31T13:19:24.594Z,55.14
2017-10-31T13:21:52.882Z,54.42
2017-10-31T13:24:21.152Z,54.06
2017-10-31T13:26:49.438Z,53.14
2017-10-31T13:29:18.380Z,52.04
2017-10-31T13:31:47.883Z,52.69
2017-10-31T13:34:17.222Z,52.74
2017-10-31T13:36:45.811Z,54.12
2017-10-31T13:39:14.415Z,53.83
2017-10-31T13:41:43.825Z,53.98
2017-10-31T13:44:12.435Z,55.02
2017-10-31T13:46:42.454Z,54.15
2017-10-31T13:49:11.722Z,54.25
2017-10-31T13:51:40.191Z,53.09
2017-10-31T13:54:08.439Z,53.89
2017-10-31T13:56:36.674Z,52.69
2017-10-31T13:59:05.679Z,53.72
2017-10-31T14:01:35.080Z,53.52
2017-10-31T14:04:04.409Z,53.97
2017-10-31T14:06:32.890Z,53.36
2017-10-31T14:09:01.156Z,53.03
2017-10-31T14:11:29.637Z,54.60
2017-10-31T14:13:57.882Z,53.12
2017-10-31T14:16:26.890Z,52.47
2017-10-31T14:18:55.238Z,52.21
2017-10-31T14:21:23.498Z,51.43
2017-10-31T14:23:51.742Z,53.33
2017-10-31T14:26:19.985Z,54.19
2017-10-31T14:28:49.007Z,51.53
2017-10-31T14:31:17.250Z,52.91
2017-10-31T14:33:46.272Z,48.07
2017-10-31T14:36:14.506Z,49.27
2017-10-31T14:38:42.759Z,50.33
2017-10-31T14:41:11.010Z,51.88
2017-10-31T14:43:39.267Z,52.95
2017-10-31T14:46:07.518Z,46.62
2017-10-31T14:48:36.532Z,48.25
2017-10-31T14:51:04.778Z,49.58
2017-10-31T14:53:33.024Z,54.08
2017-10-31T14:56:01.267Z,53.44
2017-10-31T14:58:29.519Z,53.00
2017-10-31T15:00:58.513Z,53.01
2017-10-31T15:03:27.535Z,53.53
2017-10-31T15:05:55.772Z,54.57
2017-10-31T15:08:24.778Z,55.34
2017-10-31T15:10:53.787Z,54.22
2017-10-31T15:13:22.029Z,55.73
2017-10-31T15:15:50.277Z,55.70
2017-10-31T15:18:18.524Z,55.22
2017-10-31T15:20:46.768Z,57.19
2017-10-31T15:23:15.778Z,56.16
2017-10-31T15:25:44.018Z,57.09
2017-10-31T15:28:12.267Z,56.83
2017-10-31T15:30:40.507Z,56.69
2017-10-31T15:33:08.756Z,57.34
2017-10-31T15:35:37.754Z,57.41
2017-10-31T15:38:06.763Z,57.04
2017-10-31T15:40:34.998Z,57.49
2017-10-31T15:43:03.245Z,58.57
2017-10-31T15:45:31.554Z,58.14
2017-10-31T15:47:59.859Z,58.20
2017-10-31T15:50:28.909Z,58.96
2017-10-31T15:52:57.213Z,59.35
2017-10-31T15:55:26.258Z,58.49
2017-10-31T15:57:54.557Z,58.90
2017-10-31T16:00:22.825Z,59.20
2017-10-31T16:02:51.125Z,59.01
2017-10-31T16:05:24.944Z,59.63
2017-10-31T16:07:53.989Z,59.68
2017-10-31T16:10:22.275Z,59.50
2017-10-31T16:12:50.548Z,60.01
2017-10-31T16:15:18.836Z,60.36
2017-10-31T16:17:47.287Z,59.46
2017-10-31T16:20:15.623Z,60.00
2017-10-31T16:22:44.718Z,60.19
2017-10-31T16:25:13.792Z,60.40
2017-10-31T16:27:42.073Z,60.62
2017-10-31T16:30:10.362Z,61.24
2017-10-31T16:32:39.407Z,61.22
2017-10-31T16:35:07.682Z,61.25
2017-10-31T16:37:36.955Z,61.53
2017-10-31T16:40:05.357Z,61.42
2017-10-31T16:42:33.680Z,61.46
2017-10-31T16:45:02.022Z,62.10
2017-10-31T16:47:30.292Z,61.86
2017-10-31T16:50:00.580Z,62.20
2017-10-31T16:52:28.818Z,63.03
2017-10-31T16:54:57.144Z,63.12
2017-10-31T16:57:25.560Z,62.57
2017-10-31T16:59:53.828Z,62.55
2017-10-31T17:02:22.064Z,62.51
2017-10-31T17:04:51.121Z,62.86
2017-10-31T17:07:19.358Z,63.37
2017-10-31T17:09:47.607Z,63.17
2017-10-31T17:12:15.842Z,62.92
2017-10-31T17:14:46.044Z,63.32
2017-10-31T17:17:14.280Z,63.41
2017-10-31T17:19:42.541Z,63.85
2017-10-31T17:22:11.550Z,63.61
2017-10-31T17:24:44.793Z,63.55
2017-10-31T17:27:13.069Z,63.85
2017-10-31T17:29:47.220Z,63.25
2017-10-31T17:32:16.263Z,63.42
2017-10-31T17:34:44.569Z,63.29
2017-10-31T17:37:12.874Z,63.15
2017-10-31T17:39:41.202Z,63.02
2017-10-31T17:42:09.472Z,62.92
2017-10-31T17:44:37.830Z,62.87
2017-10-31T17:47:06.097Z,62.60
2017-10-31T17:49:34.372Z,62.25
2017-10-31T17:52:02.625Z,62.35
2017-10-31T17:54:31.677Z,63.42
2017-10-31T17:56:59.939Z,62.28
2017-10-31T17:59:28.200Z,62.12
2017-10-31T18:01:56.455Z,61.66
2017-10-31T18:04:24.768Z,62.82
2017-10-31T18:06:53.013Z,62.63
2017-10-31T18:09:21.284Z,63.68
2017-10-31T18:11:49.551Z,62.33
2017-10-31T18:14:18.595Z,63.10
2017-10-31T18:16:46.885Z,63.02
2017-10-31T18:19:15.166Z,64.31
2017-10-31T18:21:43.436Z,63.54
2017-10-31T18:24:11.711Z,62.57
2017-10-31T18:26:39.980Z,63.59
2017-10-31T18:29:08.238Z,65.46
2017-10-31T18:31:36.505Z,66.87
2017-10-31T18:34:04.751Z,66.65
2017-10-31T18:36:33.753Z,64.46
2017-10-31T18:39:02.012Z,64.96
2017-10-31T18:41:31.022Z,64.60
2017-10-31T18:43:59.266Z,63.99
2017-10-31T18:46:28.281Z,64.23
2017-10-31T18:48:57.288Z,63.49
2017-10-31T18:51:25.518Z,63.96
2017-10-31T18:53:54.474Z,63.60
2017-10-31T18:56:22.714Z,63.52
2017-10-31T18:58:51.730Z,63.37
2017-10-31T19:01:19.960Z,63.25
2017-10-31T19:03:48.210Z,63.24
2017-10-31T19:06:17.206Z,63.88
2017-10-31T19:08:45.462Z,64.12
2017-10-31T19:11:13.686Z,63.60
2017-10-31T19:13:42.704Z,63.53
2017-10-31T19:16:10.937Z,63.72
2017-10-31T19:18:39.182Z,63.88
2017-10-31T19:21:07.428Z,63.89
2017-10-31T19:23:35.668Z,63.89
2017-10-31T19:26:03.912Z,64.18
2017-10-31T19:28:32.149Z,63.98
2017-10-31T19:31:00.410Z,64.06
2017-10-31T19:33:29.411Z,64.13
2017-10-31T19:35:58.424Z,64.21
2017-10-31T19:38:26.666Z,64.56
2017-10-31T19:40:55.674Z,64.13
2017-10-31T19:43:23.914Z,64.17
2017-10-31T19:45:52.154Z,64.63
2017-10-31T19:48:20.400Z,64.52
2017-10-31T19:50:48.650Z,64.47
2017-10-31T19:53:16.900Z,64.19
2017-10-31T19:55:45.154Z,64.51
2017-10-31T19:58:13.394Z,64.20
2017-10-31T20:00:42.415Z,64.12
2017-10-31T20:03:10.649Z,64.25
2017-10-31T20:05:38.895Z,64.15
2017-10-31T20:08:07.136Z,63.96
2017-10-31T20:10:35.373Z,63.89
2017-10-31T20:13:04.387Z,63.59
2017-10-31T20:15:33.395Z,63.67
2017-10-31T20:18:01.638Z,63.11
2017-10-31T20:20:29.887Z,63.15
2017-10-31T20:22:58.119Z,63.07
2017-10-31T20:25:26.367Z,62.66
2017-10-31T20:27:54.597Z,62.79
2017-10-31T20:30:22.842Z,62.90
2017-10-31T20:32:51.075Z,62.30
2017-10-31T20:35:19.324Z,63.11
2017-10-31T20:37:48.326Z,63.01
2017-10-31T20:40:16.575Z,63.47
2017-10-31T20:42:44.822Z,63.53
2017-10-31T20:45:13.834Z,63.74
2017-10-31T20:47:42.065Z,63.77
2017-10-31T20:50:10.323Z,64.33
2017-10-31T20:52:38.634Z,64.20
2017-10-31T20:55:06.839Z,64.33
2017-10-31T20:57:35.070Z,64.38
2017-10-31T21:00:03.316Z,64.47
2017-10-31T21:02:31.547Z,64.58
2017-10-31T21:04:59.794Z,64.76
2017-10-31T21:07:28.038Z,64.57
2017-10-31T21:09:56.281Z,64.98
2017-10-31T21:12:24.513Z,65.23
2017-10-31T21:14:52.817Z,65.33
2017-10-31T21:17:21.841Z,65.17
2017-10-31T21:19:50.122Z,65.78
2017-10-31T21:22:18.455Z,65.94
2017-10-31T21:24:48.371Z,66.04
2017-10-31T21:27:17.396Z,66.22
2017-10-31T21:29:45.645Z,66.58
2017-10-31T21:32:14.672Z,66.63
2017-10-31T21:34:42.935Z,66.85
2017-10-31T21:37:11.208Z,66.87
2017-10-31T21:39:39.493Z,67.01
2017-10-31T21:42:07.761Z,67.29
2017-10-31T21:44:36.055Z,67.60
2017-10-31T21:47:05.044Z,67.95
2017-10-31T21:49:36.007Z,68.35
2017-10-31T21:52:04.306Z,68.19
2017-10-31T21:54:32.564Z,68.47
2017-10-31T21:57:00.838Z,68.32
2017-10-31T21:59:29.085Z,68.21
2017-10-31T22:01:57.361Z,68.44
2017-10-31T22:04:25.634Z,67.67
2017-10-31T22:06:53.901Z,67.79
2017-10-31T22:09:22.156Z,67.20
2017-10-31T22:11:51.186Z,67.30
2017-10-31T22:14:19.463Z,67.17
2017-10-31T22:16:47.727Z,67.23
2017-10-31T22:19:15.982Z,66.53
2017-10-31T22:21:44.252Z,66.64
2017-10-31T22:24:13.287Z,66.60
2017-10-31T22:26:41.585Z,66.37
2017-10-31T22:29:09.848Z,67.26
2017-10-31T22:31:38.885Z,67.63
2017-10-31T22:34:07.921Z,67.45
2017-10-31T22:36:36.171Z,67.70
2017-10-31T22:39:04.453Z,67.97
2017-10-31T22:41:32.721Z,68.16
2017-10-31T22:44:01.739Z,67.47
2017-10-31T22:46:29.999Z,67.96
2017-10-31T22:48:58.278Z,67.77
2017-10-31T22:51:26.546Z,67.85
2017-10-31T22:53:55.524Z,68.04
2017-10-31T22:56:24.612Z,67.70
2017-10-31T22:58:53.638Z,67.81
2017-10-31T23:01:21.916Z,67.74
2017-10-31T23:03:50.171Z,67.72
2017-10-31T23:06:19.226Z,67.66
2017-10-31T23:08:47.490Z,67.97
2017-10-31T23:11:15.763Z,67.78
2017-10-31T23:13:44.053Z,67.56
2017-10-31T23:16:12.333Z,67.50
2017-10-31T23:18:40.588Z,67.83
2017-10-31T23:21:08.842Z,67.33
2017-10-31T23:23:37.078Z,67.57
2017-10-31T23:26:06.109Z,67.30
2017-10-31T23:28:34.357Z,67.57
2017-10-31T23:31:03.378Z,67.65
2017-10-31T23:33:31.625Z,68.14
2017-10-31T23:36:00.642Z,67.78
2017-10-31T23:38:28.889Z,67.76
2017-10-31T23:40:57.916Z,67.76
2017-10-31T23:43:26.176Z,68.06
2017-10-31T23:45:54.427Z,68.14
2017-10-31T23:48:23.436Z,68.60
2017-10-31T23:50:52.442Z,68.55
2017-10-31T23:53:20.684Z,68.48
2017-10-31T23:55:48.933Z,68.68
2017-10-31T23:58:17.172Z,68.84
